Time;durP1;ratioP1;P1;durP2;ratioP2;P2;SDS_P1;SDS_P2;PMS_P1;PMS_P2;Temp;Humidity;BMP_temperature;BMP_pressure;BME280_temperature;BME280_humidity;BME280_pressure;Samples;Min_cycle;Max_cycle;Signal;HPM_P1;HPM_P2
2022/10/10 00:00:32;;;;;;;7.32;2.45;;;10.70;93.40;;;;;;5131537;27;20337;-72
2022/10/10 00:02:58;;;;;;;5.97;1.88;;;10.70;93.80;;;;;;5100715;27;20496;-72
2022/10/10 00:05:23;;;;;;;4.68;1.85;;;10.60;93.50;;;;;;5095931;27;20099;-71
2022/10/10 00:07:49;;;;;;;6.93;1.90;;;10.70;93.50;;;;;;5101543;27;20034;-72
2022/10/10 00:10:15;;;;;;;4.90;2.05;;;10.60;93.40;;;;;;5115851;27;20041;-72
2022/10/10 00:12:41;;;;;;;8.57;1.98;;;10.60;93.40;;;;;;5131222;27;20467;-73
2022/10/10 00:15:07;;;;;;;5.80;1.88;;;10.70;93.30;;;;;;5148114;27;20153;-71
2022/10/10 00:17:33;;;;;;;8.90;2.00;;;10.60;93.40;;;;;;5111126;27;20054;-71
2022/10/10 00:19:59;;;;;;;7.25;2.40;;;10.60;93.40;;;;;;5094395;27;20043;-71
2022/10/10 00:22:24;;;;;;;8.63;2.00;;;10.60;93.50;;;;;;5117432;27;20054;-71
2022/10/10 00:24:50;;;;;;;9.40;2.38;;;10.60;93.50;;;;;;5120734;27;20039;-72
2022/10/10 00:27:16;;;;;;;8.30;2.10;;;10.50;93.50;;;;;;5100367;27;20425;-71
2022/10/10 00:29:42;;;;;;;10.93;2.20;;;10.40;94.00;;;;;;5098124;27;20051;-71
2022/10/10 00:32:07;;;;;;;4.68;1.77;;;10.40;93.90;;;;;;5101575;27;20043;-71
2022/10/10 00:34:33;;;;;;;7.38;2.05;;;10.40;94.00;;;;;;5095165;27;20039;-72
2022/10/10 00:37:00;;;;;;;10.23;2.60;;;10.30;93.80;;;;;;5134123;27;20114;-72
2022/10/10 00:39:26;;;;;;;9.35;2.33;;;10.30;94.00;;;;;;5118127;27;20137;-72
2022/10/10 00:41:53;;;;;;;7.28;1.80;;;10.30;93.90;;;;;;5098892;27;20118;-72
2022/10/10 00:44:18;;;;;;;9.65;1.92;;;10.30;93.90;;;;;;5132210;27;20043;-71
2022/10/10 00:46:46;;;;;;;6.70;2.38;;;10.30;94.00;;;;;;5100181;27;20042;-71
2022/10/10 00:49:14;;;;;;;6.60;2.00;;;10.30;93.90;;;;;;5152421;27;20099;-72
2022/10/10 00:51:40;;;;;;;7.28;2.25;;;10.30;93.90;;;;;;5090401;27;20051;-72
2022/10/10 00:54:08;;;;;;;6.43;1.73;;;10.30;93.90;;;;;;5097579;27;20047;-72
2022/10/10 00:56:48;;;;;;;6.05;1.88;;;10.30;94.00;;;;;;5105917;27;20047;-72
2022/10/10 00:59:14;;;;;;;12.52;2.22;;;10.30;93.90;;;;;;5100425;27;20047;-72
2022/10/10 01:01:40;;;;;;;6.88;2.33;;;10.30;94.20;;;;;;5096733;27;20104;-72
2022/10/10 01:04:26;;;;;;;8.25;2.28;;;10.30;94.30;;;;;;5100334;27;20579;-72
2022/10/10 01:06:52;;;;;;;7.80;2.10;;;10.30;94.10;;;;;;5106814;27;20050;-72
2022/10/10 01:09:17;;;;;;;6.95;2.35;;;10.30;94.10;;;;;;5115182;27;20046;-72
2022/10/10 01:12:24;;;;;;;6.75;1.80;;;10.30;94.00;;;;;;5118515;27;20046;-72
2022/10/10 01:15:17;;;;;;;8.35;2.15;;;10.30;94.20;;;;;;5126690;27;20379;-72
2022/10/10 01:18:19;;;;;;;5.43;1.60;;;10.30;93.80;;;;;;5109837;27;20439;-72
2022/10/10 01:21:08;;;;;;;6.72;2.17;;;10.30;93.90;;;;;;5138681;27;20078;-72
2022/10/10 01:23:42;;;;;;;;;;;10.40;93.80;;;;;;5112557;27;20047;-72
2022/10/10 01:26:37;;;;;;;6.07;2.47;;;10.30;93.90;;;;;;5144069;27;19918;-72
2022/10/10 01:29:06;;;;;;;6.05;2.10;;;10.30;93.80;;;;;;5134159;27;20551;-72
2022/10/10 01:31:33;;;;;;;6.30;2.42;;;10.30;94.00;;;;;;5133716;27;20046;-72
2022/10/10 01:34:20;;;;;;;6.43;2.00;;;10.30;94.20;;;;;;5126709;27;20051;-72
2022/10/10 01:36:57;;;;;;;5.68;1.77;;;10.30;94.00;;;;;;5129914;27;20063;-72
2022/10/10 01:39:30;;;;;;;7.68;1.75;;;10.30;94.00;;;;;;5107033;27;20119;-72
2022/10/10 01:42:06;;;;;;;7.60;2.28;;;10.30;94.00;;;;;;5119585;27;20062;-72
2022/10/10 01:44:31;;;;;;;3.67;1.83;;;10.20;94.10;;;;;;5116967;27;20095;-72
2022/10/10 01:46:57;;;;;;;7.53;2.10;;;10.20;94.10;;;;;;5108361;27;20072;-72
2022/10/10 01:49:25;;;;;;;6.28;1.67;;;10.30;94.00;;;;;;5094698;27;20057;-72
2022/10/10 01:52:02;;;;;;;4.20;2.05;;;10.20;94.00;;;;;;5079822;27;20528;-72
2022/10/10 01:54:46;;;;;;;4.90;1.92;;;10.20;93.90;;;;;;5136292;27;20047;-72
2022/10/10 01:57:36;;;;;;;7.55;2.50;;;10.20;94.10;;;;;;5078091;27;20039;-72
2022/10/10 02:00:09;;;;;;;6.35;1.92;;;10.20;94.10;;;;;;5111459;27;20372;-73
2022/10/10 02:02:55;;;;;;;7.53;2.05;;;10.30;93.90;;;;;;5094518;27;20070;-71
2022/10/10 02:05:26;;;;;;;7.90;2.50;;;10.20;94.00;;;;;;5097897;27;20122;-72
2022/10/10 02:08:08;;;;;;;7.15;2.13;;;10.20;94.40;;;;;;5095809;27;20050;-72
2022/10/10 02:10:39;;;;;;;10.35;2.05;;;10.20;94.40;;;;;;5108991;27;20352;-72
2022/10/10 02:13:05;;;;;;;6.72;1.92;;;10.20;94.30;;;;;;5089011;27;20460;-72
2022/10/10 02:15:46;;;;;;;5.70;1.90;;;10.20;94.10;;;;;;5083757;27;20051;-72
2022/10/10 02:18:13;;;;;;;6.20;2.15;;;10.20;94.20;;;;;;5081634;27;20739;-72
2022/10/10 02:20:38;;;;;;;6.15;2.00;;;10.20;94.10;;;;;;5096939;27;20058;-71
2022/10/10 02:23:05;;;;;;;6.35;2.10;;;10.10;94.10;;;;;;5093576;27;20061;-72
2022/10/10 02:25:32;;;;;;;5.05;2.20;;;10.10;94.10;;;;;;5091020;27;20038;-71
2022/10/10 02:28:14;;;;;;;4.85;1.90;;;10.00;94.30;;;;;;5101440;27;20043;-72
2022/10/10 02:30:43;;;;;;;5.63;1.75;;;10.00;94.20;;;;;;5104667;27;20078;-72
2022/10/10 02:33:09;;;;;;;5.60;1.95;;;10.00;94.30;;;;;;5091266;27;20122;-72
2022/10/10 02:35:37;;;;;;;5.35;2.13;;;10.00;94.20;;;;;;5091571;27;20127;-72
2022/10/10 02:38:03;;;;;;;6.07;1.63;;;10.00;94.30;;;;;;5127223;27;20054;-72
2022/10/10 02:40:31;;;;;;;4.03;1.83;;;10.00;94.30;;;;;;5075390;27;20043;-72
2022/10/10 02:42:58;;;;;;;8.10;2.00;;;10.00;94.40;;;;;;5112074;27;20458;-72
2022/10/10 02:45:24;;;;;;;6.85;2.10;;;9.90;94.40;;;;;;5116150;27;20618;-73
2022/10/10 02:47:50;;;;;;;4.93;1.75;;;9.90;94.40;;;;;;5092024;27;20130;-72
2022/10/10 02:50:15;;;;;;;5.97;1.98;;;9.90;94.40;;;;;;5079063;27;20043;-71
2022/10/10 02:52:41;;;;;;;5.32;2.00;;;9.90;94.60;;;;;;5099916;27;20130;-71
2022/10/10 02:55:07;;;;;;;5.13;1.98;;;9.80;94.50;;;;;;5094690;27;20051;-71
2022/10/10 02:57:33;;;;;;;5.40;1.88;;;9.80;94.60;;;;;;5125625;27;20047;-72
2022/10/10 02:59:59;;;;;;;8.18;2.70;;;9.70;94.90;;;;;;5124810;27;20554;-72
2022/10/10 03:02:24;;;;;;;7.38;2.08;;;9.70;95.00;;;;;;5139658;27;20074;-72
2022/10/10 03:04:50;;;;;;;3.95;1.90;;;9.60;95.10;;;;;;5114844;27;20129;-71
2022/10/10 03:07:16;;;;;;;6.55;2.08;;;9.50;95.40;;;;;;5148616;27;20134;-72
2022/10/10 03:09:41;;;;;;;5.32;2.00;;;9.40;95.60;;;;;;5127528;27;20046;-71
2022/10/10 03:12:07;;;;;;;9.13;2.05;;;9.40;95.60;;;;;;5085704;27;20055;-71
2022/10/10 03:14:33;;;;;;;3.97;1.98;;;9.30;95.40;;;;;;5142223;27;20049;-71
2022/10/10 03:16:59;;;;;;;6.22;1.90;;;9.30;95.60;;;;;;5122273;27;20580;-71
2022/10/10 03:19:25;;;;;;;5.60;1.90;;;9.20;95.70;;;;;;5117331;27;20054;-71
2022/10/10 03:21:50;;;;;;;5.53;2.08;;;9.20;95.60;;;;;;5104979;27;20051;-70
2022/10/10 03:24:16;;;;;;;6.28;2.03;;;9.20;95.70;;;;;;5146021;27;20102;-71
2022/10/10 03:26:42;;;;;;;9.07;2.45;;;9.20;95.70;;;;;;5100601;27;20077;-71
2022/10/10 03:29:07;;;;;;;9.40;2.22;;;9.20;95.90;;;;;;5116021;27;20049;-72
2022/10/10 03:31:33;;;;;;;5.40;2.28;;;9.10;95.90;;;;;;5142537;27;20047;-71
2022/10/10 03:33:59;;;;;;;4.75;1.80;;;9.10;96.10;;;;;;5145019;27;20079;-71
2022/10/10 03:36:26;;;;;;;9.75;2.10;;;9.00;95.80;;;;;;5097406;27;20061;-71
2022/10/10 03:38:52;;;;;;;6.82;2.33;;;8.90;96.20;;;;;;5129396;27;20051;-72
2022/10/10 03:41:18;;;;;;;4.75;2.00;;;8.90;96.20;;;;;;5097357;27;20076;-71
2022/10/10 03:43:44;;;;;;;8.27;2.30;;;8.80;96.10;;;;;;5125494;27;20046;-71
2022/10/10 03:46:09;;;;;;;6.57;2.50;;;8.70;96.60;;;;;;5106707;27;20456;-71
2022/10/10 03:48:35;;;;;;;6.03;2.20;;;8.70;96.40;;;;;;5108864;27;20057;-71
2022/10/10 03:51:01;;;;;;;7.32;2.22;;;8.70;96.90;;;;;;5124543;27;20043;-70
2022/10/10 03:53:26;;;;;;;9.35;2.20;;;8.70;96.90;;;;;;5130197;27;20119;-71
2022/10/10 03:55:52;;;;;;;3.63;1.85;;;8.70;96.70;;;;;;5112374;27;20043;-71
2022/10/10 03:58:18;;;;;;;6.45;2.20;;;8.60;96.50;;;;;;5134630;27;20080;-71
2022/10/10 04:00:44;;;;;;;7.22;2.00;;;8.50;96.80;;;;;;5134864;27;20130;-71
2022/10/10 04:03:09;;;;;;;8.30;2.25;;;8.50;96.60;;;;;;5099850;27;20076;-71
2022/10/10 04:05:36;;;;;;;5.45;2.13;;;8.60;96.90;;;;;;5113175;27;20074;-71
2022/10/10 04:08:02;;;;;;;6.07;2.00;;;8.60;97.00;;;;;;5129630;27;20123;-67
2022/10/10 04:10:27;;;;;;;8.85;2.40;;;8.60;97.20;;;;;;5091385;27;20509;-66
2022/10/10 04:12:53;;;;;;;6.43;2.42;;;8.60;97.20;;;;;;5114134;27;20065;-67
2022/10/10 04:15:19;;;;;;;4.47;2.20;;;8.60;97.00;;;;;;5134817;27;20130;-66
2022/10/10 04:17:45;;;;;;;6.57;2.53;;;8.60;97.20;;;;;;5133095;27;20483;-69
2022/10/10 04:20:10;;;;;;;7.25;2.38;;;8.60;96.90;;;;;;5101203;27;20050;-66
2022/10/10 04:22:38;;;;;;;6.15;2.50;;;8.50;96.90;;;;;;5126233;27;20059;-67
2022/10/10 04:25:04;;;;;;;8.20;2.05;;;8.40;96.80;;;;;;5117972;27;20045;-67
2022/10/10 04:27:29;;;;;;;6.43;2.17;;;8.30;96.60;;;;;;5127541;27;20370;-66
2022/10/10 04:29:55;;;;;;;6.05;2.40;;;8.20;96.70;;;;;;5093160;27;20054;-67
2022/10/10 04:32:21;;;;;;;8.20;2.20;;;8.10;96.60;;;;;;5110327;27;20051;-67
2022/10/10 04:34:46;;;;;;;6.68;2.28;;;8.10;96.80;;;;;;5117282;27;20054;-65
2022/10/10 04:37:12;;;;;;;6.75;2.50;;;8.00;96.90;;;;;;5081848;27;20074;-66
2022/10/10 04:39:38;;;;;;;6.47;2.35;;;8.00;97.10;;;;;;5094133;27;20047;-67
2022/10/10 04:42:04;;;;;;;6.35;2.80;;;8.00;97.20;;;;;;5112996;27;20074;-67
2022/10/10 04:44:29;;;;;;;7.22;2.58;;;8.10;97.50;;;;;;5104989;27;20111;-66
2022/10/10 04:46:55;;;;;;;8.00;2.50;;;8.10;97.40;;;;;;5130283;27;20053;-67
2022/10/10 04:49:21;;;;;;;9.70;2.85;;;8.10;97.50;;;;;;5090937;27;20047;-67
2022/10/10 04:51:47;;;;;;;10.07;3.03;;;8.10;97.60;;;;;;5126472;27;20051;-67
2022/10/10 04:54:12;;;;;;;6.60;3.15;;;8.10;97.50;;;;;;5101302;27;20463;-65
2022/10/10 04:56:41;;;;;;;6.03;2.22;;;8.10;97.40;;;;;;5111466;27;20082;-66
2022/10/10 04:59:07;;;;;;;6.93;2.92;;;8.10;97.00;;;;;;5094233;27;20137;-66
2022/10/10 05:01:33;;;;;;;7.07;2.67;;;8.00;96.90;;;;;;5065652;27;20049;-67
2022/10/10 05:03:59;;;;;;;7.55;2.80;;;7.90;97.00;;;;;;5078262;27;20375;-66
2022/10/10 05:06:28;;;;;;;5.43;2.50;;;7.80;97.10;;;;;;5113328;27;20038;-67
2022/10/10 05:08:54;;;;;;;9.20;3.10;;;7.80;97.10;;;;;;5093974;27;20047;-67
2022/10/10 05:11:19;;;;;;;7.53;2.60;;;7.80;97.30;;;;;;5121328;27;20123;-66
2022/10/10 05:13:45;;;;;;;5.95;2.50;;;7.70;97.50;;;;;;5110883;27;20357;-67
2022/10/10 05:16:12;;;;;;;12.27;3.00;;;7.70;97.40;;;;;;5113324;27;20043;-67
2022/10/10 05:18:38;;;;;;;9.60;2.80;;;7.60;97.50;;;;;;5113802;27;20357;-67
2022/10/10 05:21:06;;;;;;;6.30;2.80;;;7.60;97.60;;;;;;5112567;27;20038;-67
2022/10/10 05:23:32;;;;;;;7.83;3.00;;;7.60;97.60;;;;;;5134691;27;20042;-68
2022/10/10 05:25:58;;;;;;;6.90;2.90;;;7.50;97.70;;;;;;5116337;27;20043;-67
2022/10/10 05:28:24;;;;;;;9.10;3.03;;;7.60;97.80;;;;;;5097744;27;20580;-67
2022/10/10 05:30:51;;;;;;;10.20;2.70;;;7.70;98.00;;;;;;5128367;27;20092;-69
2022/10/10 05:33:16;;;;;;;9.43;2.78;;;7.70;98.00;;;;;;5102769;27;20047;-68
2022/10/10 05:35:44;;;;;;;6.50;2.70;;;7.70;97.90;;;;;;5111486;27;20065;-67
2022/10/10 05:38:09;;;;;;;9.57;2.90;;;7.70;97.80;;;;;;5109621;27;20750;-66
2022/10/10 05:40:39;;;;;;;11.93;3.53;;;7.70;97.90;;;;;;5107282;27;20051;-66
2022/10/10 05:43:05;;;;;;;10.75;3.15;;;7.60;98.10;;;;;;5096615;27;20075;-66
2022/10/10 05:45:31;;;;;;;7.63;2.67;;;7.60;98.30;;;;;;5096265;27;20480;-66
2022/10/10 05:47:56;;;;;;;9.20;3.13;;;7.70;98.60;;;;;;5112027;27;20051;-66
2022/10/10 05:50:31;;;;;;;9.48;3.78;;;7.70;98.70;;;;;;5109824;27;20070;-67
2022/10/10 05:52:57;;;;;;;6.47;2.90;;;7.80;98.80;;;;;;5100047;27;20125;-67
2022/10/10 05:55:23;;;;;;;8.00;3.28;;;7.80;98.70;;;;;;5107869;27;20050;-67
2022/10/10 05:57:49;;;;;;;9.95;2.70;;;7.80;98.70;;;;;;5108844;27;20049;-66
2022/10/10 06:00:15;;;;;;;10.38;3.00;;;7.80;98.80;;;;;;5074454;27;20039;-66
2022/10/10 06:02:41;;;;;;;9.68;2.80;;;7.90;98.80;;;;;;5115726;27;20757;-66
2022/10/10 06:05:08;;;;;;;8.88;3.03;;;7.90;98.70;;;;;;5102858;27;20134;-68
2022/10/10 06:07:34;;;;;;;7.22;3.05;;;7.90;98.60;;;;;;5098539;27;20038;-67
2022/10/10 06:10:00;;;;;;;6.72;2.80;;;8.00;98.50;;;;;;5106847;27;20042;-67
2022/10/10 06:12:25;;;;;;;10.70;3.00;;;8.00;98.90;;;;;;5091640;27;20121;-66
2022/10/10 06:14:51;;;;;;;6.45;3.10;;;8.00;98.50;;;;;;5114901;27;20371;-66
2022/10/10 06:17:17;;;;;;;10.07;3.20;;;8.10;98.80;;;;;;5128727;27;20051;-66
2022/10/10 06:19:44;;;;;;;11.80;3.10;;;8.10;98.30;;;;;;5145803;27;20104;-67
2022/10/10 06:22:09;;;;;;;7.68;3.15;;;8.10;98.30;;;;;;5128350;27;20501;-68
2022/10/10 06:24:36;;;;;;;7.25;3.20;;;8.10;98.30;;;;;;5108531;27;20043;-68
2022/10/10 06:27:03;;;;;;;7.90;2.78;;;8.20;98.30;;;;;;5125101;27;20042;-67
2022/10/10 06:29:29;;;;;;;8.00;3.38;;;8.20;98.40;;;;;;5128463;27;20043;-66
2022/10/10 06:31:55;;;;;;;9.00;3.15;;;8.10;98.50;;;;;;5102495;27;21399;-67
2022/10/10 06:34:22;;;;;;;11.90;3.17;;;8.10;98.60;;;;;;5107329;27;20793;-68
2022/10/10 06:36:50;;;;;;;7.82;2.53;;;8.10;98.50;;;;;;5123101;27;20054;-67
2022/10/10 06:39:15;;;;;;;11.63;3.72;;;8.20;98.50;;;;;;5129468;27;20116;-68
2022/10/10 06:41:43;;;;;;;9.23;3.42;;;8.20;98.60;;;;;;5097196;27;20711;-67
2022/10/10 06:44:09;;;;;;;10.82;2.90;;;8.20;98.60;;;;;;5123650;27;20087;-68
2022/10/10 06:46:36;;;;;;;6.78;3.22;;;8.20;98.50;;;;;;5090179;27;20047;-68
2022/10/10 06:49:05;;;;;;;8.63;3.65;;;8.20;98.40;;;;;;5081644;27;20042;-68
2022/10/10 06:51:31;;;;;;;7.40;3.33;;;8.30;98.60;;;;;;5099024;27;20046;-66
2022/10/10 06:53:57;;;;;;;8.10;2.67;;;8.30;98.50;;;;;;5073472;27;20047;-66
2022/10/10 06:56:23;;;;;;;10.25;3.17;;;8.30;98.50;;;;;;5069526;27;20371;-66
2022/10/10 06:58:49;;;;;;;6.80;3.15;;;8.30;98.70;;;;;;5077201;27;20067;-66
2022/10/10 07:01:18;;;;;;;7.15;3.38;;;8.40;98.60;;;;;;5094027;27;20039;-67
2022/10/10 07:03:44;;;;;;;6.68;3.08;;;8.40;98.70;;;;;;5115571;27;20043;-67
2022/10/10 07:06:11;;;;;;;10.60;4.15;;;8.50;98.60;;;;;;5088389;27;20039;-66
2022/10/10 07:08:38;;;;;;;7.55;3.38;;;8.50;98.50;;;;;;5115106;27;20127;-66
2022/10/10 07:11:05;;;;;;;8.55;3.42;;;8.60;98.70;;;;;;5130823;27;20049;-67
2022/10/10 07:13:32;;;;;;;7.97;2.95;;;8.60;98.60;;;;;;5116146;27;20058;-66
2022/10/10 07:15:58;;;;;;;8.27;3.50;;;8.60;98.50;;;;;;5109435;27;20061;-66
2022/10/10 07:18:24;;;;;;;8.52;3.35;;;8.70;98.60;;;;;;5074682;27;20788;-67
2022/10/10 07:20:50;;;;;;;7.05;3.33;;;8.70;98.90;;;;;;5078928;27;20047;-67
2022/10/10 07:23:16;;;;;;;10.85;3.00;;;8.80;98.90;;;;;;5132141;27;20455;-67
2022/10/10 07:25:42;;;;;;;11.90;3.15;;;8.80;98.90;;;;;;5093840;27;20065;-66
2022/10/10 07:28:08;;;;;;;9.20;3.50;;;8.90;99.10;;;;;;5130567;27;20043;-67
2022/10/10 07:30:42;;;;;;;9.77;3.28;;;9.00;99.20;;;;;;5108371;27;20054;-67
2022/10/10 07:33:08;;;;;;;11.55;3.45;;;9.00;99.40;;;;;;5085039;27;20142;-67
2022/10/10 07:35:34;;;;;;;13.00;4.70;;;9.10;99.30;;;;;;5108351;27;20137;-70
2022/10/10 07:38:00;;;;;;;14.52;3.88;;;9.20;99.90;;;;;;5124920;27;20841;-70
2022/10/10 07:40:26;;;;;;;9.45;2.97;;;9.30;99.80;;;;;;5125842;27;20137;-71
2022/10/10 07:42:53;;;;;;;8.68;3.08;;;9.40;99.90;;;;;;5074587;27;20057;-70
2022/10/10 07:45:18;;;;;;;10.07;3.45;;;9.50;99.70;;;;;;5092620;27;20038;-71
2022/10/10 07:47:45;;;;;;;8.20;3.10;;;9.50;99.70;;;;;;5098080;27;20041;-70
2022/10/10 07:50:10;;;;;;;8.00;3.08;;;9.60;99.60;;;;;;5094225;27;20082;-70
2022/10/10 07:52:37;;;;;;;14.35;5.93;;;9.60;99.40;;;;;;5115401;27;20632;-70
2022/10/10 07:55:03;;;;;;;11.23;4.85;;;9.70;99.30;;;;;;5069165;28;20532;-70
2022/10/10 07:57:33;;;;;;;7.63;3.20;;;9.80;99.20;;;;;;5092427;28;20512;-70
2022/10/10 08:00:04;;;;;;;8.25;3.50;;;9.80;99.10;;;;;;5116063;27;20058;-71
2022/10/10 08:02:29;;;;;;;8.52;3.30;;;9.80;99.00;;;;;;5085474;28;20051;-71
2022/10/10 08:04:55;;;;;;;11.13;3.72;;;9.90;98.90;;;;;;5093928;28;20589;-71
2022/10/10 08:07:21;;;;;;;7.43;3.35;;;9.90;98.90;;;;;;5148345;27;20471;-71
2022/10/10 08:09:47;;;;;;;12.50;4.82;;;10.00;98.90;;;;;;5110655;27;20050;-70
2022/10/10 08:12:14;;;;;;;10.95;6.50;;;10.00;98.80;;;;;;5117116;27;20049;-70
2022/10/10 08:14:40;;;;;;;9.57;3.75;;;10.10;98.90;;;;;;5118054;27;20134;-71
2022/10/10 08:17:06;;;;;;;9.10;3.40;;;10.20;99.00;;;;;;5111786;27;20053;-71
2022/10/10 08:19:31;;;;;;;6.88;3.85;;;10.30;98.90;;;;;;5098472;27;20353;-71
2022/10/10 08:21:57;;;;;;;10.57;3.45;;;10.40;98.70;;;;;;5081009;27;20432;-70
2022/10/10 08:24:23;;;;;;;12.45;3.35;;;10.40;98.50;;;;;;5110384;27;20043;-65
2022/10/10 08:26:49;;;;;;;7.95;3.83;;;10.50;98.10;;;;;;5094316;27;20043;-66
2022/10/10 08:29:16;;;;;;;9.48;3.95;;;10.50;98.00;;;;;;5114208;27;20406;-66
2022/10/10 08:31:42;;;;;;;8.48;4.07;;;10.60;98.20;;;;;;5097779;27;20042;-68
2022/10/10 08:34:10;;;;;;;6.40;3.53;;;10.60;98.20;;;;;;5123875;27;20425;-67
2022/10/10 08:36:36;;;;;;;10.52;3.88;;;10.70;98.20;;;;;;5109306;27;20065;-67
2022/10/10 08:39:02;;;;;;;8.18;3.33;;;10.70;98.20;;;;;;4931708;28;2806680;-68
2022/10/10 08:41:50;;;;;;;11.85;5.05;;;10.80;98.20;;;;;;5066950;28;20047;-72
2022/10/10 08:44:24;;;;;;;8.10;3.80;;;10.90;98.30;;;;;;5074005;28;20446;-72
2022/10/10 08:46:55;;;;;;;7.18;3.80;;;11.00;98.30;;;;;;5090164;28;20044;-72
2022/10/10 08:49:37;;;;;;;8.98;3.33;;;11.10;98.30;;;;;;5077859;28;20041;-72
2022/10/10 08:52:07;;;;;;;5.55;2.97;;;11.20;98.00;;;;;;5079108;28;20059;-72
2022/10/10 08:54:33;;;;;;;7.85;3.17;;;11.40;98.10;;;;;;5050138;28;20044;-72
2022/10/10 08:57:00;;;;;;;6.25;3.10;;;11.40;97.80;;;;;;5045517;28;20040;-72
2022/10/10 08:59:30;;;;;;;8.27;3.20;;;11.60;98.00;;;;;;5055081;28;20052;-72
2022/10/10 09:02:15;;;;;;;10.10;3.50;;;11.70;97.70;;;;;;5056341;28;20552;-72
2022/10/10 09:04:41;;;;;;;9.18;3.17;;;11.80;97.50;;;;;;5033826;28;20490;-72
2022/10/10 09:07:17;;;;;;;7.68;3.08;;;11.80;97.30;;;;;;5050629;28;20047;-71
2022/10/10 09:10:07;;;;;;;8.90;3.38;;;12.00;97.60;;;;;;5082011;28;20040;-74
2022/10/10 09:13:00;;;;;;;8.00;3.15;;;12.20;97.10;;;;;;5086317;28;20048;-76
2022/10/10 09:16:19;;;;;;;6.30;3.53;;;12.30;97.10;;;;;;5094832;28;20047;-73
2022/10/10 09:19:00;;;;;;;8.60;2.78;;;12.60;96.50;;;;;;5006958;28;20045;-74
2022/10/10 09:21:32;;;;;;;6.47;2.63;;;12.80;96.70;;;;;;5073729;28;20164;-74
2022/10/10 09:24:10;;;;;;;6.75;2.90;;;13.10;95.60;;;;;;5073914;28;20061;-73
2022/10/10 09:26:39;;;;;;;7.05;3.03;;;13.20;95.50;;;;;;5090774;28;20044;-73
2022/10/10 09:29:33;;;;;;;10.23;4.95;;;13.30;95.80;;;;;;5066769;28;20474;-72
2022/10/10 09:32:19;;;;;;;8.50;3.33;;;13.30;95.20;;;;;;5060354;28;20108;-72
2022/10/10 09:34:47;;;;;;;8.15;3.03;;;13.60;95.00;;;;;;5072366;28;20048;-73
2022/10/10 09:37:26;;;;;;;7.38;3.05;;;13.70;94.90;;;;;;5081057;28;20374;-72
2022/10/10 09:40:26;;;;;;;7.47;2.60;;;13.80;95.00;;;;;;5071447;28;20044;-73
2022/10/10 09:42:52;;;;;;;7.00;2.90;;;13.90;94.90;;;;;;5029375;28;20048;-73
2022/10/10 09:45:20;;;;;;;7.45;2.88;;;14.20;94.40;;;;;;5053054;28;20099;-72
2022/10/10 09:47:48;;;;;;;5.32;2.90;;;14.40;94.30;;;;;;5047410;28;20036;-73
2022/10/10 09:50:15;;;;;;;6.65;2.90;;;14.60;93.80;;;;;;5079615;28;20061;-72
2022/10/10 09:52:41;;;;;;;8.30;2.97;;;14.70;93.50;;;;;;5056360;28;20055;-72
2022/10/10 09:55:22;;;;;;;5.53;2.60;;;14.70;93.50;;;;;;5051298;28;20059;-73
2022/10/10 09:57:48;;;;;;;6.30;2.70;;;14.90;93.30;;;;;;5081347;28;20052;-72
2022/10/10 10:00:20;;;;;;;6.45;2.85;;;15.00;93.20;;;;;;5052965;28;20044;-72
2022/10/10 10:02:49;;;;;;;6.57;2.50;;;15.20;92.70;;;;;;5070753;28;20449;-72
2022/10/10 10:05:25;;;;;;;6.13;2.45;;;15.50;92.30;;;;;;5087584;28;20040;-72
2022/10/10 10:07:52;;;;;;;7.32;2.70;;;15.60;92.30;;;;;;5071084;28;20040;-73
2022/10/10 10:10:19;;;;;;;11.73;3.95;;;15.70;91.50;;;;;;5071240;28;20044;-73
2022/10/10 10:12:45;;;;;;;8.00;3.03;;;16.00;91.10;;;;;;5072202;28;20067;-73
2022/10/10 10:15:28;;;;;;;8.02;3.55;;;16.10;91.10;;;;;;5057099;28;20044;-73
2022/10/10 10:18:23;;;;;;;11.57;3.58;;;16.40;91.30;;;;;;5070253;28;20052;-72
2022/10/10 10:21:01;;;;;;;11.88;3.97;;;16.60;90.00;;;;;;5076356;28;20044;-73
2022/10/10 10:23:41;;;;;;;9.65;3.08;;;16.50;90.20;;;;;;5070904;28;20117;-73
2022/10/10 10:26:26;;;;;;;6.82;3.35;;;16.80;90.30;;;;;;5071616;28;20422;-73
2022/10/10 10:28:52;;;;;;;8.65;2.83;;;16.90;88.30;;;;;;5068827;28;20040;-72
2022/10/10 10:31:29;;;;;;;6.68;2.67;;;17.20;89.00;;;;;;5078370;28;20048;-73
2022/10/10 10:34:40;;;;;;;6.32;2.50;;;17.40;87.10;;;;;;5086058;28;20119;-73
2022/10/10 10:37:16;;;;;;;6.97;2.35;;;17.70;85.40;;;;;;5088867;28;20052;-73
2022/10/10 10:40:05;;;;;;;6.20;2.50;;;18.00;83.20;;;;;;5063354;28;20059;-72
2022/10/10 10:43:02;;;;;;;7.40;2.80;;;18.00;82.50;;;;;;5057123;28;20129;-73
2022/10/10 10:45:47;;;;;;;6.38;3.58;;;18.90;82.50;;;;;;5077349;28;20033;-72
2022/10/10 10:48:32;;;;;;;9.40;4.18;;;19.90;78.30;;;;;;5051580;28;20068;-73
2022/10/10 10:51:04;;;;;;;8.25;3.97;;;20.90;73.30;;;;;;5071576;28;20052;-73
2022/10/10 10:53:57;;;;;;;9.85;4.47;;;20.70;74.20;;;;;;5070627;28;20044;-73
2022/10/10 10:56:31;;;;;;;11.45;6.25;;;21.00;71.40;;;;;;5054557;28;20105;-73
2022/10/10 10:59:09;;;;;;;8.13;3.88;;;20.90;71.80;;;;;;5085870;28;20046;-72
2022/10/10 11:01:38;;;;;;;;;;;20.20;73.60;;;;;;5067625;28;20044;-72
2022/10/10 11:04:23;;;;;;;;;;;21.10;70.30;;;;;;5084141;28;20597;-73
2022/10/10 11:07:08;;;;;;;13.88;3.95;;;21.50;71.20;;;;;;5083070;28;19916;-74
2022/10/10 11:09:43;;;;;;;11.23;3.40;;;21.30;69.60;;;;;;5079688;28;20112;-72
2022/10/10 11:12:53;;;;;;;8.55;2.80;;;20.80;71.00;;;;;;5053314;28;20036;-72
2022/10/10 11:15:51;;;;;;;10.27;4.35;;;21.40;69.60;;;;;;5078569;28;20552;-73
2022/10/10 11:18:37;;;;;;;13.57;3.70;;;21.50;70.80;;;;;;5052979;28;20611;-73
2022/10/10 11:21:10;;;;;;;9.93;4.10;;;22.00;67.70;;;;;;5049548;28;20040;-73
2022/10/10 11:23:42;;;;;;;8.88;3.88;;;21.70;70.20;;;;;;5040134;28;20052;-73
2022/10/10 11:26:25;;;;;;;12.20;4.30;;;22.40;67.90;;;;;;5087294;28;20484;-73
2022/10/10 11:29:12;;;;;;;9.00;4.57;;;21.80;66.30;;;;;;5072167;28;20044;-73
2022/10/10 11:31:46;;;;;;;12.18;3.25;;;22.30;66.50;;;;;;5086149;28;20047;-73
2022/10/10 11:34:23;;;;;;;12.13;3.85;;;21.80;68.20;;;;;;5085599;28;20427;-72
2022/10/10 11:36:49;;;;;;;9.73;3.35;;;22.10;67.00;;;;;;5067496;28;20063;-72
2022/10/10 11:39:23;;;;;;;6.15;2.95;;;21.10;66.80;;;;;;5067722;28;20040;-72
2022/10/10 11:42:04;;;;;;;11.10;3.22;;;20.90;68.10;;;;;;5022185;28;20378;-73
2022/10/10 11:44:42;;;;;;;8.15;2.67;;;20.70;69.80;;;;;;5075127;28;20051;-71
2022/10/10 11:47:18;;;;;;;7.47;3.17;;;20.40;71.40;;;;;;5079930;28;20119;-71
2022/10/10 11:50:20;;;;;;;12.02;4.45;;;20.50;72.00;;;;;;5080796;28;21167;-72
2022/10/10 11:52:52;;;;;;;11.73;3.90;;;20.50;71.50;;;;;;5078574;28;20067;-72
2022/10/10 11:55:27;;;;;;;10.00;3.50;;;20.70;71.10;;;;;;5071464;28;20635;-73
2022/10/10 11:58:05;;;;;;;9.77;3.45;;;20.70;69.60;;;;;;5075117;28;20135;-72
2022/10/10 12:00:44;;;;;;;10.48;4.47;;;21.90;68.90;;;;;;5081535;28;20761;-68
2022/10/10 12:03:11;;;;;;;10.20;3.90;;;21.90;67.70;;;;;;5088851;28;20048;-68
2022/10/10 12:05:39;;;;;;;11.73;3.03;;;21.40;68.80;;;;;;5072547;28;20045;-67
2022/10/10 12:08:19;;;;;;;11.73;3.53;;;21.60;67.40;;;;;;5106677;28;20063;-72
2022/10/10 12:10:49;;;;;;;8.95;2.17;;;22.10;67.10;;;;;;5022823;28;20045;-72
2022/10/10 12:13:31;;;;;;;5.82;2.17;;;22.40;65.40;;;;;;5071027;28;20147;-69
2022/10/10 12:15:58;;;;;;;12.45;3.15;;;22.10;66.40;;;;;;5073284;28;20047;-69
2022/10/10 12:18:44;;;;;;;7.32;2.30;;;22.40;65.20;;;;;;5072721;28;20043;-68
2022/10/10 12:21:13;;;;;;;8.35;1.98;;;21.50;66.60;;;;;;5065275;28;20052;-68
2022/10/10 12:23:47;;;;;;;5.55;2.90;;;22.00;65.50;;;;;;5049858;28;20052;-67
2022/10/10 12:26:23;;;;;;;5.97;2.00;;;22.10;64.70;;;;;;5057837;28;20499;-68
2022/10/10 12:29:09;;;;;;;8.93;2.15;;;22.40;64.40;;;;;;5054644;28;20044;-72
2022/10/10 12:31:40;;;;;;;11.10;2.92;;;22.50;65.20;;;;;;5079233;28;20040;-72
2022/10/10 12:34:28;;;;;;;7.45;2.28;;;22.20;64.60;;;;;;5036565;28;20041;-73
2022/10/10 12:37:25;;;;;;;11.27;3.00;;;22.60;64.50;;;;;;5057700;28;20063;-72
2022/10/10 12:40:06;;;;;;;6.60;2.55;;;23.40;64.20;;;;;;5090324;28;20044;-73
2022/10/10 12:42:47;;;;;;;5.93;2.10;;;24.50;62.10;;;;;;5070573;28;20105;-74
2022/10/10 12:45:31;;;;;;;6.10;2.25;;;25.10;60.30;;;;;;5087663;28;20135;-73
2022/10/10 12:48:03;;;;;;;11.07;2.15;;;24.90;57.90;;;;;;5084808;28;20039;-73
2022/10/10 12:50:53;;;;;;;7.82;2.30;;;24.40;58.50;;;;;;5074813;28;20086;-73
2022/10/10 12:53:19;;;;;;;10.50;2.63;;;23.40;60.30;;;;;;5084851;28;20530;-71
2022/10/10 12:55:49;;;;;;;7.43;2.58;;;23.80;60.70;;;;;;5070285;28;20059;-71
2022/10/10 12:58:19;;;;;;;9.73;2.15;;;22.90;61.40;;;;;;5055910;28;20195;-73
2022/10/10 13:00:45;;;;;;;6.57;2.78;;;22.50;63.50;;;;;;5037800;28;20076;-73
2022/10/10 13:03:19;;;;;;;8.50;2.83;;;22.20;63.80;;;;;;5085558;28;20048;-73
2022/10/10 13:05:45;;;;;;;8.23;2.13;;;21.60;65.90;;;;;;5069225;28;20045;-73
2022/10/10 13:08:19;;;;;;;7.57;2.25;;;21.30;67.20;;;;;;5053299;28;20367;-71
2022/10/10 13:11:08;;;;;;;9.35;2.10;;;21.50;68.00;;;;;;5063763;28;20773;-71